Time;durP1;ratioP1;P1;durP2;ratioP2;P2;SDS_P1;SDS_P2;PMS_P1;PMS_P2;Temp;Humidity;BMP_temperature;BMP_pressure;BME280_temperature;BME280_humidity;BME280_pressure;Samples;Min_cycle;Max_cycle;Signal;HPM_P1;HPM_P2
2022/08/19 00:02:04;;;;;;;3.45;0.80;;;;;;;26.31;44.46;98146.06;5031463;28;20431;-66
2022/08/19 00:04:52;;;;;;;4.47;0.90;;;;;;;26.73;43.83;98140.03;5046928;28;20144;-65
2022/08/19 00:07:37;;;;;;;7.07;1.48;;;;;;;26.28;44.83;98141.16;5038832;28;20109;-66
2022/08/19 00:10:21;;;;;;;5.63;0.90;;;;;;;26.51;44.43;98129.78;5045180;28;20480;-65
2022/08/19 00:13:06;;;;;;;6.32;1.25;;;;;;;26.72;44.02;98124.97;5034019;28;20042;-65
2022/08/19 00:15:51;;;;;;;8.88;1.40;;;;;;;26.35;44.61;98120.47;5034090;28;20037;-64
2022/08/19 00:18:36;;;;;;;8.20;1.23;;;;;;;26.37;44.73;98121.06;5033511;28;20445;-65
2022/08/19 00:21:21;;;;;;;3.78;0.90;;;;;;;26.39;44.78;98127.00;5037222;28;20037;-63
2022/08/19 00:24:10;;;;;;;2.50;0.80;;;;;;;26.39;44.92;98116.28;5039011;28;20076;-65
2022/08/19 00:26:56;;;;;;;4.00;1.10;;;;;;;26.48;44.71;98114.13;5041291;28;20050;-65
2022/08/19 00:29:41;;;;;;;3.17;0.98;;;;;;;26.52;44.49;98114.50;5047122;28;20048;-63
2022/08/19 00:32:26;;;;;;;5.03;1.25;;;;;;;26.36;43.79;98116.72;5047141;28;20091;-65
2022/08/19 00:35:11;;;;;;;4.40;1.20;;;;;;;26.23;44.34;98114.19;5037403;28;20090;-65
2022/08/19 00:37:55;;;;;;;2.95;1.10;;;;;;;26.51;44.05;98107.47;5037793;28;20049;-65
2022/08/19 00:40:46;;;;;;;4.93;1.10;;;;;;;26.38;43.91;98103.91;5033761;28;20033;-65
2022/08/19 00:43:31;;;;;;;5.03;1.45;;;;;;;26.32;43.90;98097.59;5039238;28;20032;-65
2022/08/19 00:46:15;;;;;;;4.10;1.13;;;;;;;26.64;43.59;98099.25;5044230;28;20476;-65
2022/08/19 00:49:09;;;;;;;5.80;1.27;;;;;;;26.39;43.37;98102.84;5075019;28;20049;-65
2022/08/19 00:51:59;;;;;;;6.78;1.38;;;;;;;26.18;44.44;98099.56;5040029;28;20037;-63
2022/08/19 00:54:47;;;;;;;7.13;1.58;;;;;;;26.48;43.99;98110.59;5044789;28;20044;-65
2022/08/19 00:57:37;;;;;;;3.25;1.20;;;;;;;26.51;44.06;98102.09;5032358;28;20107;-64
2022/08/19 01:00:25;;;;;;;6.72;1.70;;;;;;;26.35;44.54;98096.31;5053724;28;20534;-64
2022/08/19 01:03:13;;;;;;;4.75;1.30;;;;;;;25.70;46.24;98101.91;5049408;28;20064;-65
2022/08/19 01:05:59;;;;;;;4.00;1.42;;;;;;;25.61;46.63;98100.50;5041726;28;20041;-66
2022/08/19 01:08:44;;;;;;;5.20;1.45;;;;;;;25.30;47.51;98112.91;5033261;28;20041;-65
2022/08/19 01:11:32;;;;;;;4.10;1.30;;;;;;;24.90;48.72;98108.66;5032320;28;20041;-65
2022/08/19 01:14:19;;;;;;;5.28;1.70;;;;;;;24.71;49.47;98108.53;5059111;28;20061;-65
2022/08/19 01:17:05;;;;;;;8.38;1.90;;;;;;;24.61;49.60;98112.47;5045661;28;20396;-66
2022/08/19 01:19:51;;;;;;;4.57;1.13;;;;;;;24.44;50.15;98098.75;5047595;28;20091;-64
2022/08/19 01:22:46;;;;;;;5.78;1.67;;;;;;;24.13;50.95;98094.91;5039950;28;20036;-63
2022/08/19 01:25:42;;;;;;;6.72;1.50;;;;;;;24.21;50.85;98091.22;5037727;28;20041;-64
2022/08/19 01:28:27;;;;;;;10.35;1.33;;;;;;;24.35;50.58;98097.34;5048282;28;20057;-66
2022/08/19 01:31:18;;;;;;;7.57;1.50;;;;;;;24.32;50.63;98100.44;5037496;28;20037;-65
2022/08/19 01:34:03;;;;;;;4.85;1.33;;;;;;;24.23;50.99;98099.84;5019083;28;20049;-65
2022/08/19 01:36:48;;;;;;;7.45;1.33;;;;;;;24.32;50.61;98103.94;5044450;28;20049;-67
2022/08/19 01:39:34;;;;;;;7.47;1.58;;;;;;;24.41;50.66;98107.22;5032618;28;20041;-64
2022/08/19 01:42:21;;;;;;;4.47;1.58;;;;;;;24.39;50.41;98101.25;5032613;28;20466;-65
2022/08/19 01:45:10;;;;;;;5.78;1.60;;;;;;;24.66;50.14;98089.59;5038251;28;20545;-65
2022/08/19 01:47:55;;;;;;;3.38;1.25;;;;;;;24.41;50.39;98093.84;5050935;28;20044;-66
2022/08/19 01:50:40;;;;;;;6.57;1.30;;;;;;;24.24;51.03;98107.66;5043747;28;20041;-64
2022/08/19 01:53:24;;;;;;;2.75;1.40;;;;;;;24.13;51.37;98108.28;5022205;28;20043;-65
2022/08/19 01:56:09;;;;;;;7.03;1.67;;;;;;;24.31;51.16;98118.34;5036112;28;20045;-65
2022/08/19 01:58:59;;;;;;;6.63;1.60;;;;;;;24.42;50.73;98106.16;5031879;28;20033;-65
2022/08/19 02:01:44;;;;;;;5.05;1.52;;;;;;;24.57;50.43;98113.94;5058966;28;20042;-64
2022/08/19 02:04:29;;;;;;;4.93;1.27;;;;;;;24.93;50.00;98111.72;5030812;28;20045;-64
2022/08/19 02:07:14;;;;;;;7.22;1.90;;;;;;;24.67;49.80;98121.50;5034114;28;20037;-64
2022/08/19 02:10:03;;;;;;;4.78;1.80;;;;;;;24.61;50.20;98127.72;5032026;28;20045;-65
2022/08/19 02:12:49;;;;;;;7.38;1.52;;;;;;;24.53;50.32;98127.97;5034104;28;20037;-65
2022/08/19 02:15:33;;;;;;;5.80;1.73;;;;;;;24.60;50.28;98129.56;5059110;28;20038;-65
2022/08/19 02:18:18;;;;;;;22.65;1.92;;;;;;;24.85;49.51;98126.16;5030744;28;20036;-65
2022/08/19 02:21:03;;;;;;;5.38;1.35;;;;;;;25.15;48.64;98127.44;5044700;28;20054;-65
2022/08/19 02:23:49;;;;;;;4.32;1.60;;;;;;;25.04;48.96;98125.44;5048143;28;20399;-65
2022/08/19 02:26:34;;;;;;;6.07;1.50;;;;;;;25.25;48.19;98126.16;5031290;28;20076;-65
2022/08/19 02:29:19;;;;;;;6.30;1.85;;;;;;;25.55;47.43;98120.16;5031481;28;20061;-65
2022/08/19 02:32:04;;;;;;;6.25;1.65;;;;;;;25.22;48.41;98117.50;5030634;28;20037;-64
2022/08/19 02:34:49;;;;;;;5.50;1.70;;;;;;;25.37;48.15;98120.91;5037759;28;20388;-65
2022/08/19 02:40:37;;;;;;;4.25;1.33;;;;;;;25.74;47.44;98117.56;5041395;28;20041;-65
2022/08/19 02:43:23;;;;;;;5.93;1.67;;;;;;;25.88;47.07;98124.44;5031465;28;20473;-66
2022/08/19 02:46:20;;;;;;;6.45;1.65;;;;;;;25.77;47.40;98125.16;5031332;28;20060;-65
2022/08/19 02:49:07;;;;;;;4.05;1.50;;;;;;;26.00;46.63;98126.38;5030871;28;20083;-64
2022/08/19 02:51:52;;;;;;;4.85;1.75;;;;;;;25.99;46.63;98132.78;5040964;28;20045;-65
2022/08/19 02:54:38;;;;;;;5.07;1.48;;;;;;;26.04;46.43;98124.88;5043611;28;20049;-64
2022/08/19 02:57:23;;;;;;;5.88;1.80;;;;;;;26.07;46.13;98127.97;5043962;28;20037;-64
2022/08/19 03:00:12;;;;;;;7.40;1.58;;;;;;;26.03;46.55;98121.38;5040107;28;20041;-65
2022/08/19 03:02:56;;;;;;;4.65;1.40;;;;;;;26.00;46.41;98121.03;5039290;28;20037;-65
2022/08/19 03:05:42;;;;;;;7.95;1.67;;;;;;;25.85;46.59;98127.56;5045677;28;20041;-64
2022/08/19 03:08:26;;;;;;;3.05;1.80;;;;;;;25.90;46.44;98133.06;5036381;28;20041;-64
2022/08/19 03:11:31;;;;;;;5.75;1.58;;;;;;;25.78;46.77;98124.94;5030842;28;20045;-65
2022/08/19 03:14:17;;;;;;;7.25;1.33;;;;;;;26.08;45.80;98128.78;5061816;28;20041;-65
2022/08/19 03:17:04;;;;;;;6.35;1.48;;;;;;;25.69;46.53;98132.44;5057540;28;20042;-64
2022/08/19 03:19:49;;;;;;;7.53;1.45;;;;;;;25.33;47.64;98132.06;5032082;28;20048;-64
2022/08/19 03:22:33;;;;;;;4.80;1.67;;;;;;;25.43;47.40;98136.09;5049501;28;20472;-65
2022/08/19 03:25:18;;;;;;;5.47;1.63;;;;;;;25.50;47.50;98128.84;5023648;28;20099;-65
2022/08/19 03:28:03;;;;;;;3.97;1.40;;;;;;;25.56;47.22;98127.16;5030069;28;20037;-65
2022/08/19 03:30:57;;;;;;;5.63;1.55;;;;;;;25.59;46.71;98121.38;5043679;28;20060;-65
2022/08/19 03:33:41;;;;;;;7.30;1.80;;;;;;;25.59;46.74;98121.38;5033602;28;20392;-64
2022/08/19 03:36:27;;;;;;;5.70;1.58;;;;;;;25.26;47.71;98120.59;5041601;28;20041;-65
2022/08/19 03:39:11;;;;;;;4.15;1.42;;;;;;;25.03;48.28;98126.50;5062159;28;20075;-65
2022/08/19 03:42:02;;;;;;;13.02;1.60;;;;;;;24.75;48.98;98127.63;5044611;28;20057;-64
2022/08/19 03:44:47;;;;;;;4.43;1.40;;;;;;;24.83;49.01;98138.94;5043086;28;20048;-63
2022/08/19 03:47:32;;;;;;;7.47;1.60;;;;;;;25.20;48.21;98141.00;5033943;28;20045;-64
2022/08/19 03:50:18;;;;;;;7.40;1.70;;;;;;;25.08;47.94;98142.75;5043214;28;20459;-65
2022/08/19 03:53:03;;;;;;;4.35;1.40;;;;;;;24.75;49.60;98149.91;5036287;28;20384;-65
2022/08/19 03:55:47;;;;;;;5.32;1.48;;;;;;;25.27;48.07;98156.22;5077518;28;20049;-66
2022/08/19 03:58:32;;;;;;;4.30;1.48;;;;;;;25.41;47.79;98156.97;5035614;28;20067;-65
2022/08/19 04:01:19;;;;;;;7.32;1.77;;;;;;;25.59;47.20;98156.22;5038336;28;20045;-65
2022/08/19 04:04:05;;;;;;;6.10;1.63;;;;;;;25.64;47.16;98158.28;5033241;28;20539;-65
2022/08/19 04:06:51;;;;;;;4.38;1.55;;;;;;;25.60;47.17;98160.53;5041136;28;20120;-65
2022/08/19 04:09:39;;;;;;;6.22;1.52;;;;;;;25.73;47.29;98165.00;5033238;28;20041;-64
2022/08/19 04:12:23;;;;;;;5.45;1.63;;;;;;;25.77;46.60;98168.88;5061176;28;20033;-62
2022/08/19 04:15:09;;;;;;;6.00;1.65;;;;;;;25.69;47.01;98167.28;5042456;28;20099;-62
2022/08/19 04:17:54;;;;;;;12.40;1.70;;;;;;;25.69;46.95;98161.09;5032412;28;20104;-62
2022/08/19 04:20:42;;;;;;;6.70;1.60;;;;;;;25.29;48.33;98167.56;5042018;28;20041;-62
2022/08/19 04:23:30;;;;;;;4.70;1.50;;;;;;;25.42;48.20;98170.16;5060833;28;20049;-60
2022/08/19 04:26:22;;;;;;;7.97;1.60;;;;;;;25.32;48.35;98165.28;5036677;28;20403;-62
2022/08/19 04:29:14;;;;;;;9.00;1.77;;;;;;;24.99;49.68;98168.97;5040059;28;20043;-62
2022/08/19 04:31:59;;;;;;;8.40;1.90;;;;;;;24.45;50.77;98164.63;5032844;28;20073;-62
2022/08/19 04:34:44;;;;;;;5.03;1.65;;;;;;;24.42;51.50;98162.38;5060697;28;20065;-61
2022/08/19 04:37:32;;;;;;;3.67;1.60;;;;;;;24.48;51.23;98163.38;5032148;28;20044;-61
2022/08/19 04:43:20;;;;;;;8.30;2.50;;;;;;;24.76;50.97;98166.78;5038484;28;20044;-61
2022/08/19 04:46:10;;;;;;;5.85;1.98;;;;;;;24.85;50.69;98162.81;5023064;28;20049;-61
2022/08/19 04:48:56;;;;;;;4.50;2.00;;;;;;;24.75;51.06;98175.84;5031689;28;20057;-62
2022/08/19 04:51:42;;;;;;;6.78;2.35;;;;;;;24.76;50.96;98166.78;5034528;28;20382;-60
2022/08/19 04:54:27;;;;;;;4.85;2.22;;;;;;;24.93;50.76;98165.28;5040549;28;20090;-61
2022/08/19 04:57:12;;;;;;;6.32;2.45;;;;;;;24.87;50.98;98166.13;5032247;28;20056;-60
2022/08/19 04:59:57;;;;;;;4.45;2.22;;;;;;;25.06;50.42;98175.13;5043111;28;20378;-60
2022/08/19 05:02:44;;;;;;;7.28;2.63;;;;;;;25.09;50.52;98180.03;5036839;28;20037;-62
2022/08/19 05:05:28;;;;;;;6.35;2.20;;;;;;;25.22;50.29;98189.84;5033029;28;20092;-62
2022/08/19 05:08:19;;;;;;;6.38;2.58;;;;;;;25.32;50.19;98178.66;5032159;28;20031;-61
2022/08/19 05:11:24;;;;;;;9.20;2.35;;;;;;;25.28;50.21;98185.47;5031472;28;20045;-60
2022/08/19 05:14:12;;;;;;;4.32;2.72;;;;;;;25.73;49.27;98193.66;5059953;28;20432;-63
2022/08/19 05:16:56;;;;;;;11.50;2.60;;;;;;;25.58;50.32;98192.09;5042449;28;20087;-64
2022/08/19 05:22:47;;;;;;;9.15;2.70;;;;;;;25.52;50.45;98193.81;5042930;28;20431;-64
2022/08/19 05:25:32;;;;;;;9.13;3.25;;;;;;;25.64;50.22;98193.13;5052717;28;20048;-64
2022/08/19 05:28:21;;;;;;;7.60;3.63;;;;;;;25.50;50.60;98192.34;5048072;28;20143;-65
2022/08/19 05:31:06;;;;;;;9.02;3.35;;;;;;;25.54;50.99;98193.59;5036901;28;20037;-65
2022/08/19 05:33:50;;;;;;;11.98;3.45;;;;;;;25.39;50.97;98193.88;5033301;28;20511;-65
2022/08/19 05:36:39;;;;;;;10.30;3.40;;;;;;;25.52;50.81;98190.28;5031232;28;20037;-65
2022/08/19 05:39:28;;;;;;;9.38;3.10;;;;;;;25.60;50.46;98195.38;5033147;28;20072;-65
2022/08/19 05:42:14;;;;;;;7.70;4.00;;;;;;;25.70;50.04;98195.75;5032407;28;20077;-64
2022/08/19 05:44:58;;;;;;;7.60;3.55;;;;;;;26.05;49.77;98201.63;5043428;28;20403;-62
2022/08/19 05:47:44;;;;;;;7.90;4.05;;;;;;;26.61;48.84;98201.75;5032707;28;20038;-61
2022/08/19 05:50:30;;;;;;;10.95;4.40;;;;;;;26.87;47.57;98205.16;5073453;28;20124;-60
2022/08/19 05:53:16;;;;;;;9.25;4.00;;;;;;;26.85;47.58;98212.59;5040478;28;20041;-61
2022/08/19 05:56:09;;;;;;;7.75;3.88;;;;;;;26.71;48.17;98233.44;5017505;28;20484;-62
2022/08/19 05:58:53;;;;;;;6.85;3.50;;;;;;;26.65;48.73;98237.03;5040167;28;20491;-62
2022/08/19 06:01:41;;;;;;;11.85;2.75;;;;;;;26.41;50.99;98235.00;5051643;28;20052;-60
2022/08/19 06:04:28;;;;;;;6.20;2.70;;;;;;;26.91;51.49;98254.69;5032643;28;20061;-60
2022/08/19 06:07:13;;;;;;;11.13;2.30;;;;;;;27.23;49.16;98261.78;5036687;28;20052;-61
2022/08/19 06:09:57;;;;;;;6.35;2.78;;;;;;;27.21;49.20;98266.56;5036541;28;20438;-60
2022/08/19 06:12:45;;;;;;;6.80;3.42;;;;;;;26.98;49.65;98275.31;5058506;28;20037;-62
2022/08/19 06:15:29;;;;;;;9.02;4.88;;;;;;;26.55;49.07;98275.94;5030486;28;20465;-61
2022/08/19 06:18:15;;;;;;;6.72;3.92;;;;;;;26.64;50.22;98273.78;5034395;28;20055;-62
2022/08/19 06:21:03;;;;;;;6.55;2.60;;;;;;;26.91;51.12;98286.91;5040631;28;20068;-60
2022/08/19 06:23:50;;;;;;;5.55;2.22;;;;;;;27.14;50.48;98296.19;5030999;28;20112;-61
2022/08/19 06:26:38;;;;;;;4.97;1.90;;;;;;;26.97;51.36;98308.56;5044657;28;20048;-60
2022/08/19 06:29:25;;;;;;;7.22;2.08;;;;;;;27.14;51.05;98303.44;5025239;28;20056;-62
2022/08/19 06:32:10;;;;;;;10.77;2.25;;;;;;;27.21;51.13;98306.88;5035858;28;20250;-62
2022/08/19 06:34:58;;;;;;;7.40;2.85;;;;;;;27.52;50.22;98302.34;5044345;28;20095;-62
2022/08/19 06:37:42;;;;;;;4.63;1.88;;;;;;;27.54;50.40;98311.00;5031253;28;20041;-62
2022/08/19 06:40:27;;;;;;;6.95;3.50;;;;;;;26.93;48.57;98310.88;5031449;28;20114;-64
2022/08/19 06:43:12;;;;;;;5.95;2.40;;;;;;;27.19;50.55;98327.78;5037336;28;20133;-62
2022/08/19 06:45:58;;;;;;;6.95;2.50;;;;;;;26.79;51.50;98326.31;5057987;28;20049;-61
2022/08/19 06:48:43;;;;;;;4.57;2.50;;;;;;;26.63;52.25;98327.72;5052170;28;20053;-61
2022/08/19 06:51:28;;;;;;;9.02;2.80;;;;;;;25.69;55.73;98320.13;5045323;28;20094;-60
2022/08/19 06:54:13;;;;;;;5.72;2.75;;;;;;;25.70;55.89;98315.59;5042622;28;20041;-60
2022/08/19 06:57:03;;;;;;;9.27;2.72;;;;;;;25.80;56.23;98323.19;5040073;28;20030;-61
2022/08/19 06:59:47;;;;;;;5.32;2.83;;;;;;;26.18;55.06;98330.34;5030145;28;20108;-62
2022/08/19 07:02:32;;;;;;;6.15;3.22;;;;;;;25.86;56.28;98325.00;5044561;28;20034;-61
2022/08/19 07:05:17;;;;;;;6.45;2.67;;;;;;;25.97;56.00;98319.97;5031139;28;20120;-63
2022/08/19 07:08:04;;;;;;;9.45;2.92;;;;;;;25.91;56.42;98321.66;5030106;28;20041;-64
2022/08/19 07:10:48;;;;;;;5.22;2.90;;;;;;;26.00;56.21;98312.31;5036432;28;20029;-63
2022/08/19 07:13:36;;;;;;;6.43;2.78;;;;;;;26.50;54.77;98304.50;5050394;28;20034;-64
2022/08/19 07:16:26;;;;;;;9.73;2.92;;;;;;;26.41;55.06;98307.47;5035074;28;20380;-63
2022/08/19 07:19:11;;;;;;;8.57;2.80;;;;;;;27.03;53.46;98311.22;5038550;28;20051;-63
2022/08/19 07:21:56;;;;;;;9.55;3.45;;;;;;;26.63;54.42;98307.06;5035234;28;20108;-63
2022/08/19 07:24:40;;;;;;;8.23;3.53;;;;;;;26.48;55.19;98309.25;5048326;28;20033;-63
2022/08/19 07:27:25;;;;;;;5.20;3.08;;;;;;;26.74;54.40;98299.31;5038625;28;20041;-64
2022/08/19 07:30:13;;;;;;;10.25;3.30;;;;;;;27.06;53.98;98305.38;5049029;28;20088;-64
2022/08/19 07:32:58;;;;;;;5.03;3.28;;;;;;;27.06;53.45;98308.06;5035010;28;20041;-63
2022/08/19 07:35:43;;;;;;;8.23;3.55;;;;;;;27.08;54.10;98305.16;5061680;28;20108;-64
2022/08/19 07:38:27;;;;;;;11.73;3.78;;;;;;;27.27;53.69;98313.22;5043119;28;20678;-63
2022/08/19 07:41:15;;;;;;;5.97;3.78;;;;;;;27.33;52.96;98312.31;5034910;28;20579;-63
2022/08/19 07:44:07;;;;;;;4.93;3.00;;;;;;;27.25;53.46;98313.44;5036720;28;20124;-63
2022/08/19 07:46:55;;;;;;;6.03;3.17;;;;;;;27.39;53.44;98315.94;5040031;28;20045;-63
2022/08/19 07:49:40;;;;;;;7.78;4.15;;;;;;;27.40;53.37;98301.47;5035157;28;20056;-63
2022/08/19 07:52:25;;;;;;;5.13;3.15;;;;;;;27.46;53.24;98289.81;5040390;28;20115;-63
2022/08/19 07:55:11;;;;;;;8.30;3.50;;;;;;;27.80;51.96;98292.03;5034690;28;20041;-63
2022/08/19 07:57:55;;;;;;;4.93;3.65;;;;;;;27.88;51.61;98282.81;5012544;28;20041;-64
2022/08/19 08:00:41;;;;;;;6.60;3.45;;;;;;;28.46;50.01;98277.78;5053253;28;20041;-64
2022/08/19 08:09:37;;;;;;;5.00;3.33;;;;;;;28.65;48.88;98248.00;5034383;28;20041;-63
2022/08/19 08:12:28;;;;;;;7.20;3.38;;;;;;;28.74;49.03;98238.47;5036944;28;20040;-64
2022/08/19 08:15:18;;;;;;;4.47;2.90;;;;;;;29.16;48.00;98241.22;5033947;28;20045;-64
2022/08/19 08:18:02;;;;;;;10.27;3.15;;;;;;;29.26;48.09;98239.50;5036312;28;20037;-64
2022/08/19 08:20:47;;;;;;;7.82;3.53;;;;;;;29.52;46.54;98231.09;5040266;28;20041;-64
2022/08/19 08:23:32;;;;;;;7.05;4.15;;;;;;;29.81;45.87;98217.56;5054561;28;20037;-64
2022/08/19 08:26:17;;;;;;;6.80;3.00;;;;;;;30.22;44.92;98214.69;5035890;28;20476;-64
2022/08/19 08:29:02;;;;;;;8.07;2.97;;;;;;;30.73;43.67;98223.72;5028958;28;20801;-64
2022/08/19 08:31:48;;;;;;;6.88;3.17;;;;;;;31.23;42.65;98229.16;5050963;28;20041;-65
2022/08/19 08:34:32;;;;;;;6.57;3.00;;;;;;;31.20;42.51;98238.63;5041677;28;20345;-65
2022/08/19 08:37:17;;;;;;;8.82;3.60;;;;;;;30.99;42.96;98240.28;5035030;28;20040;-65
2022/08/19 08:40:06;;;;;;;5.78;3.22;;;;;;;31.58;41.27;98240.63;5037871;28;20099;-65
2022/08/19 08:43:30;;;;;;;8.32;3.60;;;;;;;32.00;40.65;98258.03;5036559;28;20443;-66
2022/08/19 08:46:17;;;;;;;5.20;2.80;;;;;;;32.43;39.60;98262.66;5046424;28;20041;-66
2022/08/19 08:49:17;;;;;;;10.30;3.50;;;;;;;31.94;39.74;98262.56;5033484;28;20053;-64
2022/08/19 08:52:04;;;;;;;7.32;3.55;;;;;;;32.10;39.21;98254.59;5033266;28;20056;-66
2022/08/19 08:54:54;;;;;;;10.57;3.75;;;;;;;32.30;38.92;98245.78;5043588;28;20029;-66
2022/08/19 08:57:53;;;;;;;9.02;4.40;;;;;;;32.17;37.36;98257.09;5032449;28;20417;-67
2022/08/19 09:00:40;;;;;;;10.05;5.40;;;;;;;31.85;37.68;98261.41;5033347;28;20385;-67
2022/08/19 09:03:27;;;;;;;10.45;5.00;;;;;;;31.28;38.36;98253.56;5032363;28;20037;-66
2022/08/19 09:06:48;;;;;;;7.70;4.63;;;;;;;32.45;36.65;98266.72;5036510;28;20048;-65
2022/08/19 09:09:39;;;;;;;6.90;3.30;;;;;;;33.01;37.83;98264.56;5047246;28;20060;-66
2022/08/19 09:12:58;;;;;;;5.43;3.00;;;;;;;33.67;37.07;98261.50;5033247;28;20034;-68
2022/08/19 09:15:52;;;;;;;10.50;3.53;;;;;;;32.50;38.90;98268.66;5071303;28;20043;-66
2022/08/19 09:18:47;;;;;;;4.72;3.17;;;;;;;32.57;39.05;98268.44;5040615;28;20366;-66
2022/08/19 09:21:32;;;;;;;6.72;3.00;;;;;;;32.40;39.38;98272.13;5032069;28;20045;-66
2022/08/19 09:24:16;;;;;;;6.03;2.97;;;;;;;31.92;40.62;98269.31;5034451;28;20091;-66
2022/08/19 09:27:02;;;;;;;9.23;3.10;;;;;;;31.31;41.71;98266.56;5042023;28;20271;-66
2022/08/19 09:29:48;;;;;;;4.43;3.13;;;;;;;31.93;40.99;98266.34;5032995;28;20049;-65
2022/08/19 09:32:33;;;;;;;5.47;3.25;;;;;;;33.57;37.32;98261.47;5033312;28;21316;-65
2022/08/19 09:35:21;;;;;;;9.63;3.65;;;;;;;34.32;36.26;98260.13;5031830;28;20045;-66
2022/08/19 09:38:06;;;;;;;7.47;3.35;;;;;;;34.11;36.09;98251.97;5032753;28;20830;-66
2022/08/19 09:40:51;;;;;;;13.35;3.85;;;;;;;34.88;34.84;98236.56;5031700;28;20060;-66
2022/08/19 09:43:36;;;;;;;8.07;3.72;;;;;;;35.61;33.14;98248.94;5018142;28;20037;-66
2022/08/19 09:46:23;;;;;;;8.48;4.20;;;;;;;35.83;32.03;98239.53;5032426;28;20045;-67
2022/08/19 09:49:08;;;;;;;7.95;4.63;;;;;;;36.39;31.21;98242.84;5032234;28;20065;-69
2022/08/19 09:51:56;;;;;;;7.30;4.22;;;;;;;36.02;31.49;98247.81;5032582;28;20049;-68
2022/08/19 09:54:40;;;;;;;6.72;4.18;;;;;;;36.42;30.42;98239.53;5032631;28;20400;-68
2022/08/19 09:57:25;;;;;;;6.55;3.85;;;;;;;35.68;30.90;98237.75;5032196;28;20543;-67
2022/08/19 10:00:10;;;;;;;8.80;4.25;;;;;;;35.69;31.23;98229.28;5032644;28;20053;-67
2022/08/19 10:02:56;;;;;;;5.45;3.53;;;;;;;36.42;30.12;98235.97;5032529;28;20132;-66
2022/08/19 10:05:49;;;;;;;8.93;3.90;;;;;;;37.06;29.51;98224.03;5032847;28;20432;-65
2022/08/19 10:08:36;;;;;;;7.47;4.13;;;;;;;36.92;29.47;98226.69;5031041;28;20473;-65
2022/08/19 10:11:21;;;;;;;7.60;3.97;;;;;;;36.87;28.98;98229.47;5032462;28;20099;-65
2022/08/19 10:14:06;;;;;;;7.97;3.97;;;;;;;36.66;29.36;98238.69;5032038;28;20042;-65
2022/08/19 10:16:59;;;;;;;7.35;3.72;;;;;;;36.77;29.13;98235.88;5044315;28;20124;-63
2022/08/19 10:19:47;;;;;;;9.05;4.05;;;;;;;35.98;29.79;98235.84;5031753;28;20037;-65
2022/08/19 10:22:32;;;;;;;8.52;3.92;;;;;;;35.37;30.67;98242.31;5038445;28;20103;-66
2022/08/19 10:25:17;;;;;;;14.32;4.13;;;;;;;35.41;30.52;98242.56;5032044;28;20044;-68
2022/08/19 10:28:02;;;;;;;10.60;4.50;;;;;;;35.64;30.19;98242.94;5031602;28;20041;-69
2022/08/19 10:30:49;;;;;;;6.75;3.88;;;;;;;35.32;30.42;98245.06;5031211;28;20395;-67
2022/08/19 10:33:35;;;;;;;7.47;3.70;;;;;;;35.58;30.79;98236.69;5039146;28;20038;-67
2022/08/19 10:36:22;;;;;;;6.38;3.85;;;;;;;35.04;31.87;98239.22;5032442;28;20044;-66
2022/08/19 10:39:09;;;;;;;9.02;3.83;;;;;;;34.58;32.71;98242.94;5037272;28;20499;-66
2022/08/19 10:41:56;;;;;;;6.70;3.95;;;;;;;34.40;32.63;98256.03;5031476;28;20030;-67
2022/08/19 10:44:41;;;;;;;5.88;4.18;;;;;;;34.55;32.28;98259.78;5043657;28;20087;-67
2022/08/19 10:47:25;;;;;;;8.48;4.30;;;;;;;34.43;32.68;98265.53;5037184;28;20045;-66
2022/08/19 10:53:14;;;;;;;6.90;3.80;;;;;;;34.39;32.37;98276.16;5044216;28;20056;-66
2022/08/19 10:59:04;;;;;;;6.07;3.63;;;;;;;33.03;34.73;98286.81;5053632;28;20045;-65
2022/08/19 11:01:50;;;;;;;8.57;4.03;;;;;;;32.99;34.42;98282.16;5044123;28;20041;-66
2022/08/19 11:04:35;;;;;;;5.25;3.78;;;;;;;32.90;34.98;98281.88;5031825;28;20091;-65
2022/08/19 11:07:20;;;;;;;7.80;3.80;;;;;;;33.46;34.27;98277.72;5044353;28;20041;-66
2022/08/19 11:10:08;;;;;;;8.10;4.18;;;;;;;33.62;34.10;98270.44;5034174;28;20049;-68
2022/08/19 11:12:54;;;;;;;10.77;3.67;;;;;;;33.04;35.41;98272.19;5046420;28;20041;-66
2022/08/19 11:15:39;;;;;;;6.70;3.33;;;;;;;32.36;37.12;98276.44;5037232;28;20472;-67
2022/08/19 11:18:24;;;;;;;7.25;3.67;;;;;;;32.20;37.40;98278.22;5031308;28;20087;-65
2022/08/19 11:21:17;;;;;;;7.43;3.80;;;;;;;32.65;36.80;98277.97;5050589;28;20542;-66
2022/08/19 11:24:05;;;;;;;6.05;3.10;;;;;;;32.75;36.06;98272.59;5033756;28;20149;-66
2022/08/19 11:26:52;;;;;;;4.55;2.90;;;;;;;32.32;38.14;98281.56;5038718;28;20045;-66
2022/08/19 11:29:40;;;;;;;8.50;3.53;;;;;;;32.39;37.96;98267.78;5044393;28;20045;-66
2022/08/19 11:32:26;;;;;;;8.40;3.47;;;;;;;31.79;39.32;98265.16;5076247;28;20037;-66
2022/08/19 11:35:11;;;;;;;9.23;3.50;;;;;;;31.46;39.20;98268.66;5034091;28;20057;-66
2022/08/19 11:37:57;;;;;;;7.80;3.08;;;;;;;31.34;39.23;98268.75;5046707;28;20378;-65
2022/08/19 11:40:42;;;;;;;5.60;3.15;;;;;;;31.31;39.66;98263.88;5040013;28;20495;-66
2022/08/19 11:43:28;;;;;;;6.28;3.42;;;;;;;30.98;40.21;98277.28;5037192;28;20041;-66
2022/08/19 11:46:15;;;;;;;5.50;3.17;;;;;;;30.37;42.80;98278.09;5043147;28;20049;-66
2022/08/19 11:49:02;;;;;;;5.13;3.17;;;;;;;30.02;44.00;98279.94;5045478;28;20057;-66
2022/08/19 11:51:49;;;;;;;10.98;3.85;;;;;;;30.08;44.77;98264.66;5043266;28;20038;-65
2022/08/19 11:54:34;;;;;;;4.53;3.13;;;;;;;30.27;45.15;98273.34;5030868;28;20041;-64
2022/08/19 11:57:19;;;;;;;8.63;3.22;;;;;;;29.86;46.41;98266.22;5030999;28;20037;-68
2022/08/19 12:00:06;;;;;;;6.93;3.05;;;;;;;29.32;47.85;98239.59;5036799;28;20056;-67
2022/08/19 12:02:51;;;;;;;6.68;3.08;;;;;;;29.25;48.10;98258.63;5050784;28;20384;-64
2022/08/19 12:05:38;;;;;;;8.02;3.00;;;;;;;29.68;46.78;98266.44;5039262;28;20044;-65
2022/08/19 12:08:22;;;;;;;7.68;3.22;;;;;;;29.82;46.44;98251.56;5046299;28;20115;-64
2022/08/19 12:11:10;;;;;;;9.48;3.47;;;;;;;29.65;46.76;98258.81;5047232;28;20091;-67
2022/08/19 12:13:54;;;;;;;8.57;3.55;;;;;;;29.57;45.73;98287.00;5061530;28;20072;-65
2022/08/19 12:16:40;;;;;;;9.93;3.15;;;;;;;29.37;47.53;98301.72;5033023;28;20057;-66
2022/08/19 12:19:25;;;;;;;7.95;3.58;;;;;;;29.33;47.17;98316.78;5039837;28;20057;-63
2022/08/19 12:22:09;;;;;;;7.00;3.15;;;;;;;29.57;47.14;98328.28;5036232;28;20091;-66
2022/08/19 12:24:54;;;;;;;7.07;3.40;;;;;;;29.73;46.03;98331.28;5046667;28;20033;-66
2022/08/19 12:27:39;;;;;;;12.35;3.65;;;;;;;29.58;46.53;98327.25;5029050;28;20041;-63
2022/08/19 12:30:25;;;;;;;5.78;2.83;;;;;;;29.86;45.72;98325.59;5050746;28;20037;-64
2022/08/19 12:33:09;;;;;;;6.97;3.03;;;;;;;30.18;45.29;98312.63;5046890;28;20091;-65
2022/08/19 12:35:59;;;;;;;6.45;2.95;;;;;;;30.34;45.36;98317.19;5019490;28;20076;-64
2022/08/19 12:38:44;;;;;;;7.53;2.93;;;;;;;31.21;42.43;98315.97;5046598;28;20033;-64
2022/08/19 12:41:29;;;;;;;7.00;3.20;;;;;;;32.63;39.84;98313.47;5038111;28;20056;-64
2022/08/19 12:44:13;;;;;;;7.47;3.35;;;;;;;32.75;38.38;98301.59;5051765;28;20033;-65
2022/08/19 12:46:59;;;;;;;6.03;2.60;;;;;;;31.98;38.82;98313.50;5032568;28;20037;-63
2022/08/19 12:49:44;;;;;;;10.45;2.40;;;;;;;31.64;39.42;98309.13;5042989;28;20045;-65
2022/08/19 12:52:28;;;;;;;6.70;2.40;;;;;;;30.92;40.52;98297.22;5004907;28;20037;-63
2022/08/19 12:55:14;;;;;;;5.45;2.03;;;;;;;30.66;41.40;98310.38;5033409;28;20042;-65
2022/08/19 12:58:01;;;;;;;4.63;2.17;;;;;;;31.18;40.61;98311.06;5046140;28;20041;-66
2022/08/19 13:00:46;;;;;;;8.15;2.78;;;;;;;31.34;40.30;98312.03;5033398;28;20045;-65
2022/08/19 13:03:30;;;;;;;5.50;2.63;;;;;;;31.09;40.23;98324.19;5033602;28;20037;-67
2022/08/19 13:06:15;;;;;;;13.23;2.97;;;;;;;30.78;40.89;98326.50;5046178;28;20048;-67
2022/08/19 13:09:00;;;;;;;10.68;2.22;;;;;;;30.47;41.80;98334.16;5043596;28;20044;-67
2022/08/19 13:11:45;;;;;;;4.78;2.30;;;;;;;29.79;42.91;98345.66;5038104;28;20036;-64
2022/08/19 13:14:31;;;;;;;6.18;2.55;;;;;;;29.78;43.86;98352.13;5036670;28;20025;-65
2022/08/19 13:17:17;;;;;;;10.48;2.55;;;;;;;29.43;43.58;98343.13;5036080;28;20494;-65
2022/08/19 13:20:03;;;;;;;8.15;2.20;;;;;;;29.20;43.08;98331.34;5039545;28;20121;-65
2022/08/19 13:22:48;;;;;;;9.25;2.80;;;;;;;29.08;43.85;98321.41;5034320;28;20041;-64
2022/08/19 13:25:33;;;;;;;11.32;2.80;;;;;;;29.13;43.07;98321.50;5017907;28;20357;-65